createdAt,value
2022-10-24T00:00:30.936Z,1.80
2022-10-24T00:03:32.851Z,1.73
2022-10-24T00:06:35.091Z,1.60
2022-10-24T00:09:37.402Z,1.50
2022-10-24T00:12:40.075Z,2.37
2022-10-24T00:15:49.939Z,1.37
2022-10-24T00:18:51.887Z,1.80
2022-10-24T00:21:53.792Z,3.40
2022-10-24T00:24:55.814Z,2.23
2022-10-24T00:27:57.687Z,1.73
2022-10-24T00:31:00.053Z,2.27
2022-10-24T00:34:02.561Z,1.93
2022-10-24T00:37:05.056Z,1.60
2022-10-24T00:40:07.832Z,1.70
2022-10-24T00:43:22.896Z,2.07
2022-10-24T00:46:24.762Z,1.40
2022-10-24T00:49:50.415Z,2.00
2022-10-24T00:52:52.357Z,2.60
2022-10-24T00:55:56.447Z,2.23
2022-10-24T00:58:58.666Z,2.33
2022-10-24T01:02:01.054Z,2.37
2022-10-24T01:05:04.142Z,1.87
2022-10-24T01:08:27.193Z,1.87
2022-10-24T01:11:58.596Z,3.00
2022-10-24T01:15:14.065Z,1.77
2022-10-24T01:18:31.150Z,1.90
2022-10-24T01:21:40.806Z,2.67
2022-10-24T01:25:09.906Z,2.50
2022-10-24T01:28:24.208Z,2.13
2022-10-24T01:31:31.411Z,2.47
2022-10-24T01:34:45.198Z,2.33
2022-10-24T01:38:02.596Z,2.33
2022-10-24T01:41:10.607Z,3.23
2022-10-24T01:44:29.046Z,2.67
2022-10-24T01:47:35.542Z,3.27
2022-10-24T01:50:39.081Z,2.37
2022-10-24T01:53:43.386Z,2.40
2022-10-24T01:56:46.044Z,3.27
2022-10-24T01:59:49.268Z,2.47
2022-10-24T02:03:05.107Z,2.27
2022-10-24T02:06:11.687Z,2.20
2022-10-24T02:09:17.207Z,2.10
2022-10-24T02:12:19.415Z,2.30
2022-10-24T02:15:31.258Z,2.40
2022-10-24T02:18:34.126Z,2.07
2022-10-24T02:21:47.897Z,2.37
2022-10-24T02:24:56.503Z,2.30
2022-10-24T02:28:25.492Z,2.00
2022-10-24T02:31:33.565Z,2.17
2022-10-24T02:34:36.207Z,2.73
2022-10-24T02:37:43.315Z,3.00
2022-10-24T02:40:46.906Z,2.93
2022-10-24T02:43:50.731Z,2.63
2022-10-24T02:46:55.056Z,2.50
2022-10-24T02:49:56.945Z,2.90
2022-10-24T02:52:59.037Z,3.43
2022-10-24T02:56:00.907Z,2.60
2022-10-24T02:59:03.115Z,2.27
2022-10-24T03:02:05.015Z,1.97
2022-10-24T03:05:07.288Z,1.77
2022-10-24T03:08:09.246Z,1.70
2022-10-24T03:11:11.209Z,2.00
2022-10-24T03:14:13.115Z,1.90
2022-10-24T03:17:15.226Z,2.40
2022-10-24T03:20:17.254Z,2.17
2022-10-24T03:23:19.638Z,1.67
2022-10-24T03:26:21.476Z,1.90
2022-10-24T03:29:24.108Z,2.10
2022-10-24T03:35:33.451Z,2.40
2022-10-24T03:38:35.257Z,3.60
2022-10-24T03:41:37.667Z,2.07
2022-10-24T03:44:39.636Z,1.80
2022-10-24T03:47:41.632Z,1.77
2022-10-24T03:50:43.495Z,1.77
2022-10-24T03:53:45.422Z,1.73
2022-10-24T03:56:48.308Z,2.00
2022-10-24T03:59:50.275Z,2.30
2022-10-24T04:02:52.479Z,2.00
2022-10-24T04:05:55.022Z,2.47
2022-10-24T04:08:57.411Z,2.10
2022-10-24T04:12:00.034Z,3.40
2022-10-24T04:15:04.749Z,2.63
2022-10-24T04:18:08.702Z,2.60
2022-10-24T04:21:10.889Z,2.60
2022-10-24T04:24:12.986Z,2.60
2022-10-24T04:27:14.908Z,2.43
2022-10-24T04:30:17.072Z,2.33
2022-10-24T04:33:18.966Z,2.90
2022-10-24T04:36:21.566Z,2.50
2022-10-24T04:39:23.357Z,2.60
2022-10-24T04:42:26.842Z,2.27
2022-10-24T04:45:29.067Z,2.20
2022-10-24T04:48:31.055Z,2.10
2022-10-24T04:51:32.902Z,2.20
2022-10-24T04:54:35.057Z,2.60
2022-10-24T04:57:36.941Z,3.23
2022-10-24T05:00:38.849Z,3.10
2022-10-24T05:03:40.723Z,3.53
2022-10-24T05:06:44.952Z,3.17
2022-10-24T05:09:47.102Z,2.90
2022-10-24T05:12:49.566Z,2.53
2022-10-24T05:15:52.093Z,2.67
2022-10-24T05:18:54.042Z,2.30
2022-10-24T05:21:55.864Z,2.30
2022-10-24T05:24:57.769Z,2.70
2022-10-24T05:27:59.587Z,2.63
2022-10-24T05:31:01.579Z,2.50
2022-10-24T05:34:03.382Z,2.80
2022-10-24T05:37:05.316Z,2.67
2022-10-24T05:40:08.853Z,2.80
2022-10-24T05:43:11.019Z,2.67
2022-10-24T05:46:12.866Z,2.40
2022-10-24T05:49:14.827Z,2.67
2022-10-24T05:52:16.641Z,3.30
2022-10-24T05:55:18.623Z,4.20
2022-10-24T05:58:22.474Z,2.57
2022-10-24T06:01:26.228Z,2.03
2022-10-24T06:04:28.155Z,2.17
2022-10-24T06:07:30.673Z,2.80
2022-10-24T06:10:33.342Z,2.67
2022-10-24T06:13:36.288Z,2.67
2022-10-24T06:16:38.354Z,2.90
2022-10-24T06:19:41.211Z,3.50
2022-10-24T06:22:45.788Z,2.90
2022-10-24T06:25:48.307Z,3.60
2022-10-24T06:28:50.227Z,3.33
2022-10-24T06:31:52.234Z,3.13
2022-10-24T06:34:54.042Z,2.47
2022-10-24T06:37:56.054Z,2.20
2022-10-24T06:40:57.967Z,2.60
2022-10-24T06:43:59.857Z,2.60
2022-10-24T06:47:01.792Z,2.80
2022-10-24T06:50:05.062Z,2.10
2022-10-24T06:53:08.637Z,2.53
2022-10-24T06:56:11.291Z,3.03
2022-10-24T06:59:15.849Z,2.60
2022-10-24T07:02:18.966Z,3.77
2022-10-24T07:05:21.037Z,3.27
2022-10-24T07:08:23.051Z,2.73
2022-10-24T07:11:26.208Z,3.10
2022-10-24T07:14:29.111Z,3.07
2022-10-24T07:17:31.658Z,3.37
2022-10-24T07:20:36.303Z,2.90
2022-10-24T07:23:39.662Z,2.57
2022-10-24T07:26:41.648Z,2.70
2022-10-24T07:29:43.555Z,3.50
2022-10-24T07:32:46.217Z,3.13
2022-10-24T07:35:48.490Z,3.43
2022-10-24T07:38:52.509Z,3.30
2022-10-24T07:41:54.341Z,2.70
2022-10-24T07:44:56.207Z,3.60
2022-10-24T07:48:00.151Z,3.70
2022-10-24T07:51:09.667Z,3.30
2022-10-24T07:54:11.528Z,2.47
2022-10-24T07:57:13.927Z,2.33
2022-10-24T08:00:16.372Z,2.77
2022-10-24T08:03:18.359Z,2.67
2022-10-24T08:06:26.349Z,2.37
2022-10-24T08:09:28.247Z,2.40
2022-10-24T08:12:30.126Z,2.50
2022-10-24T08:15:31.997Z,2.13
2022-10-24T08:18:38.727Z,2.67
2022-10-24T08:21:42.038Z,2.60
2022-10-24T08:24:44.592Z,2.93
2022-10-24T08:27:46.664Z,2.67
2022-10-24T08:30:59.387Z,2.23
2022-10-24T08:34:02.088Z,2.47
2022-10-24T08:37:04.413Z,2.60
2022-10-24T08:40:09.587Z,2.20
2022-10-24T08:43:12.212Z,2.33
2022-10-24T08:46:36.060Z,2.93
2022-10-24T08:49:45.296Z,2.20
2022-10-24T08:52:58.048Z,2.67
2022-10-24T08:56:01.233Z,2.53
2022-10-24T08:59:04.094Z,2.33
2022-10-24T09:02:12.658Z,2.70
2022-10-24T09:05:17.018Z,2.70
2022-10-24T09:08:31.303Z,2.20
2022-10-24T09:11:53.827Z,2.80
2022-10-24T09:14:58.906Z,2.37
2022-10-24T09:18:00.853Z,2.37
2022-10-24T09:21:03.358Z,2.50
2022-10-24T09:24:05.623Z,2.85
2022-10-24T09:30:33.039Z,2.47
2022-10-24T09:33:36.323Z,2.42
2022-10-24T09:36:39.641Z,2.92
2022-10-24T09:39:41.538Z,2.40
2022-10-24T09:43:12.514Z,2.30
2022-10-24T09:46:41.879Z,2.40
2022-10-24T09:49:46.709Z,2.47
2022-10-24T09:52:54.531Z,2.55
2022-10-24T09:56:08.452Z,2.50
2022-10-24T09:59:37.883Z,1.80
2022-10-24T10:02:40.136Z,2.10
2022-10-24T10:05:54.411Z,2.30
2022-10-24T10:08:58.030Z,1.92
2022-10-24T10:12:02.866Z,3.60
2022-10-24T10:15:19.016Z,2.33
2022-10-24T10:18:22.414Z,2.10
2022-10-24T10:21:25.755Z,3.38
2022-10-24T10:24:38.741Z,2.40
2022-10-24T10:27:41.929Z,2.58
2022-10-24T10:30:51.032Z,2.55
2022-10-24T10:33:59.058Z,2.67
2022-10-24T10:37:10.562Z,3.20
2022-10-24T10:40:21.752Z,2.85
2022-10-24T10:43:32.844Z,2.20
2022-10-24T10:46:43.867Z,2.03
2022-10-24T10:49:48.356Z,2.70
2022-10-24T10:52:51.146Z,1.85
2022-10-24T10:56:19.783Z,1.88
2022-10-24T10:59:29.458Z,1.95
2022-10-24T11:02:57.692Z,2.88
2022-10-24T11:06:16.225Z,2.38
2022-10-24T11:09:31.717Z,2.67
2022-10-24T11:12:40.162Z,1.77
2022-10-24T11:15:44.962Z,2.70
2022-10-24T11:18:49.847Z,2.35
2022-10-24T11:21:52.351Z,1.80
2022-10-24T11:25:06.710Z,2.30
2022-10-24T11:28:31.897Z,2.13
2022-10-24T11:31:37.917Z,1.90
2022-10-24T11:34:47.372Z,1.85
2022-10-24T11:37:53.256Z,1.63
2022-10-24T11:40:58.981Z,1.83
2022-10-24T11:44:26.172Z,2.93
2022-10-24T11:47:28.022Z,3.13
2022-10-24T11:50:57.692Z,2.40
2022-10-24T11:54:03.646Z,1.40
2022-10-24T12:00:21.562Z,2.05
2022-10-24T12:04:00.992Z,2.97
2022-10-24T12:07:36.914Z,2.63
2022-10-24T12:11:10.037Z,3.42
2022-10-24T12:15:07.831Z,1.83
2022-10-24T12:18:14.078Z,4.93
2022-10-24T12:21:24.785Z,3.28
2022-10-24T12:24:32.073Z,1.67
2022-10-24T12:27:38.117Z,1.40
2022-10-24T12:30:40.604Z,2.07
2022-10-24T12:33:44.073Z,1.90
2022-10-24T12:37:05.677Z,2.57
2022-10-24T12:40:45.423Z,2.80
2022-10-24T12:43:51.121Z,2.57
2022-10-24T12:46:54.265Z,2.87
2022-10-24T12:49:58.003Z,2.40
2022-10-24T12:53:04.495Z,2.20
2022-10-24T12:56:11.087Z,2.43
2022-10-24T12:59:25.414Z,2.53
2022-10-24T13:02:49.416Z,2.67
2022-10-24T13:06:35.349Z,2.87
2022-10-24T13:10:18.778Z,2.20
2022-10-24T13:13:29.667Z,1.53
2022-10-24T13:16:59.343Z,2.33
2022-10-24T13:20:17.498Z,1.93
2022-10-24T13:23:27.871Z,1.70
2022-10-24T13:26:40.287Z,1.50
2022-10-24T13:29:44.240Z,1.90
2022-10-24T13:32:46.437Z,13.70
2022-10-24T13:35:48.726Z,5.73
2022-10-24T13:38:56.582Z,1.00
2022-10-24T13:42:02.289Z,1.50
2022-10-24T13:45:38.037Z,1.93
2022-10-24T13:48:46.073Z,1.67
2022-10-24T13:51:51.733Z,1.73
2022-10-24T13:54:58.979Z,1.40
2022-10-24T13:58:09.509Z,1.30
2022-10-24T14:01:19.151Z,1.87
2022-10-24T14:04:21.161Z,2.73
2022-10-24T14:07:32.087Z,1.33
2022-10-24T14:10:34.325Z,1.10
2022-10-24T14:13:44.843Z,1.10
2022-10-24T14:16:46.642Z,1.10
2022-10-24T14:19:54.357Z,0.90
2022-10-24T14:22:57.351Z,2.60
2022-10-24T14:26:03.021Z,3.77
2022-10-24T14:29:04.889Z,2.67
2022-10-24T14:32:08.238Z,2.80
2022-10-24T14:35:12.909Z,2.50
2022-10-24T14:38:16.718Z,3.20
2022-10-24T14:41:19.447Z,2.80
2022-10-24T14:44:22.952Z,2.57
2022-10-24T14:47:32.787Z,2.17
2022-10-24T14:50:41.235Z,1.60
2022-10-24T14:53:43.786Z,1.47
2022-10-24T14:56:46.152Z,2.57
2022-10-24T14:59:51.366Z,1.40
2022-10-24T15:02:55.758Z,2.03
2022-10-24T15:06:10.232Z,1.40
2022-10-24T15:09:12.169Z,1.10
2022-10-24T15:12:14.067Z,1.43
2022-10-24T15:15:22.734Z,2.30
2022-10-24T15:18:31.565Z,2.10
2022-10-24T15:21:41.837Z,3.10
2022-10-24T15:24:44.564Z,1.57
2022-10-24T15:27:47.777Z,1.70
2022-10-24T15:30:49.754Z,1.20
2022-10-24T15:33:51.709Z,0.70
2022-10-24T15:36:53.911Z,0.73
2022-10-24T15:39:56.242Z,1.03
2022-10-24T15:42:58.082Z,0.93
2022-10-24T15:46:00.043Z,1.23
2022-10-24T15:49:01.883Z,1.40
2022-10-24T15:52:07.364Z,1.20
2022-10-24T15:55:17.147Z,1.37
2022-10-24T15:58:19.136Z,1.00
2022-10-24T16:01:24.176Z,1.20
2022-10-24T16:04:26.804Z,2.30
2022-10-24T16:07:28.613Z,2.20
2022-10-24T16:10:30.662Z,1.90
2022-10-24T16:13:32.512Z,1.37
2022-10-24T16:16:34.417Z,0.50
2022-10-24T16:19:37.843Z,0.73
2022-10-24T16:22:42.942Z,1.80
2022-10-24T16:25:45.431Z,2.53
2022-10-24T16:28:47.462Z,0.90
2022-10-24T16:31:51.063Z,1.27
2022-10-24T16:34:57.179Z,0.93
2022-10-24T16:38:00.293Z,1.33
2022-10-24T16:41:03.015Z,1.10
2022-10-24T16:44:04.969Z,1.10
2022-10-24T16:47:07.546Z,1.10
2022-10-24T16:50:13.994Z,0.77
2022-10-24T16:53:33.335Z,2.57
2022-10-24T16:56:35.303Z,1.40
2022-10-24T16:59:37.572Z,0.50
2022-10-24T17:02:39.468Z,0.43
2022-10-24T17:05:41.582Z,1.20
2022-10-24T17:08:43.781Z,1.37
2022-10-24T17:11:46.596Z,1.67
2022-10-24T17:14:48.630Z,2.40
2022-10-24T17:17:50.993Z,3.07
2022-10-24T17:21:00.245Z,1.40
2022-10-24T17:24:02.357Z,1.00
2022-10-24T17:27:04.342Z,1.37
2022-10-24T17:30:07.983Z,0.90
2022-10-24T17:33:13.861Z,1.20
2022-10-24T17:36:27.767Z,2.40
2022-10-24T17:39:33.243Z,1.03
2022-10-24T17:42:35.355Z,0.50
2022-10-24T17:45:37.502Z,0.70
2022-10-24T17:48:40.008Z,0.53
2022-10-24T17:51:42.256Z,1.03
2022-10-24T17:54:45.650Z,0.73
2022-10-24T17:57:48.541Z,0.73
2022-10-24T18:00:51.036Z,0.83
2022-10-24T18:03:52.934Z,0.30
2022-10-24T18:06:55.710Z,0.70
2022-10-24T18:10:00.705Z,1.70
2022-10-24T18:13:03.122Z,1.63
2022-10-24T18:16:14.709Z,0.57
2022-10-24T18:19:16.663Z,1.53
2022-10-24T18:22:18.777Z,1.50
2022-10-24T18:25:23.043Z,0.60
2022-10-24T18:28:25.331Z,1.20
2022-10-24T18:31:30.023Z,1.77
2022-10-24T18:34:31.945Z,0.77
2022-10-24T18:37:36.451Z,0.80
2022-10-24T18:40:38.891Z,1.10
2022-10-24T18:43:41.122Z,1.27
2022-10-24T18:46:43.196Z,1.67
2022-10-24T18:49:46.011Z,2.43
2022-10-24T18:53:07.802Z,2.57
2022-10-24T18:56:10.826Z,1.20
2022-10-24T18:59:15.770Z,0.70
2022-10-24T19:05:55.386Z,1.00
2022-10-24T19:08:57.456Z,0.50
2022-10-24T19:11:59.496Z,0.90
2022-10-24T19:15:01.777Z,0.60
2022-10-24T19:18:03.810Z,0.70
2022-10-24T19:21:06.308Z,0.77
2022-10-24T19:24:08.711Z,1.00
2022-10-24T19:27:10.550Z,1.30
2022-10-24T19:30:13.430Z,0.73
2022-10-24T19:33:16.924Z,0.50
2022-10-24T19:36:19.383Z,0.50
2022-10-24T19:39:21.910Z,0.50
2022-10-24T19:42:23.847Z,0.40
2022-10-24T19:45:26.176Z,0.47
2022-10-24T19:48:31.863Z,0.30
2022-10-24T19:51:34.186Z,0.50
2022-10-24T19:54:36.031Z,1.33
2022-10-24T19:57:38.197Z,0.70
2022-10-24T20:00:40.800Z,0.53
2022-10-24T20:03:45.060Z,0.60
2022-10-24T20:06:48.197Z,0.50
2022-10-24T20:09:51.117Z,0.40
2022-10-24T20:12:52.976Z,0.30
2022-10-24T20:15:56.086Z,0.70
2022-10-24T20:18:57.912Z,1.00
2022-10-24T20:22:02.333Z,0.50
2022-10-24T20:25:08.001Z,0.70
2022-10-24T20:28:11.029Z,0.97
2022-10-24T20:31:39.731Z,0.50
2022-10-24T20:34:41.908Z,0.87
2022-10-24T20:37:45.502Z,0.90
2022-10-24T20:40:47.618Z,0.80
2022-10-24T20:43:51.455Z,0.40
2022-10-24T20:46:55.689Z,0.60
2022-10-24T20:49:57.574Z,0.60
2022-10-24T20:53:00.086Z,0.90
2022-10-24T20:56:16.597Z,0.70
2022-10-24T20:59:18.532Z,0.40
2022-10-24T21:02:20.487Z,1.17
2022-10-24T21:05:25.532Z,0.87
2022-10-24T21:08:27.327Z,0.60
2022-10-24T21:11:31.142Z,0.40
2022-10-24T21:14:34.007Z,0.70
2022-10-24T21:17:35.874Z,0.53
2022-10-24T21:20:37.790Z,0.77
2022-10-24T21:23:40.687Z,0.60
2022-10-24T21:26:43.015Z,0.50
2022-10-24T21:29:44.928Z,0.70
2022-10-24T21:32:46.927Z,0.50
2022-10-24T21:35:48.744Z,0.57
2022-10-24T21:38:53.000Z,0.60
2022-10-24T21:41:54.802Z,0.30
2022-10-24T21:44:56.736Z,0.50
2022-10-24T21:47:58.537Z,0.50
2022-10-24T21:51:06.822Z,0.73
2022-10-24T21:54:19.085Z,2.07
2022-10-24T21:57:20.993Z,0.40
2022-10-24T22:00:22.937Z,0.40
2022-10-24T22:03:25.303Z,0.43
2022-10-24T22:06:28.607Z,0.40
2022-10-24T22:09:30.986Z,0.40
2022-10-24T22:12:32.817Z,0.43
2022-10-24T22:15:35.158Z,0.87
2022-10-24T22:18:37.474Z,0.60
2022-10-24T22:21:47.506Z,0.60
2022-10-24T22:24:49.427Z,0.30
2022-10-24T22:27:51.361Z,0.80
2022-10-24T22:30:53.851Z,0.50
2022-10-24T22:33:57.080Z,0.43
2022-10-24T22:37:20.897Z,0.67
2022-10-24T22:40:23.035Z,0.87
2022-10-24T22:43:25.262Z,0.50
2022-10-24T22:46:57.709Z,0.83
2022-10-24T22:50:13.266Z,0.47
2022-10-24T22:53:17.460Z,0.50
2022-10-24T22:56:27.748Z,0.43
2022-10-24T22:59:29.954Z,0.43
2022-10-24T23:02:41.408Z,0.80
2022-10-24T23:06:20.853Z,0.57
2022-10-24T23:09:22.927Z,0.50
2022-10-24T23:12:25.170Z,0.50
2022-10-24T23:15:27.983Z,0.60
2022-10-24T23:18:30.270Z,0.50
2022-10-24T23:21:37.755Z,0.60
2022-10-24T23:24:39.963Z,0.30
2022-10-24T23:27:43.998Z,0.57
2022-10-24T23:30:46.489Z,0.33
2022-10-24T23:33:48.646Z,0.43
2022-10-24T23:36:50.844Z,0.50
2022-10-24T23:39:53.044Z,0.30
2022-10-24T23:42:55.876Z,0.40
2022-10-24T23:46:05.004Z,0.50
2022-10-24T23:49:18.493Z,0.50
2022-10-24T23:52:28.735Z,0.30
2022-10-24T23:55:30.894Z,0.50
2022-10-24T23:58:32.997Z,0.50
